sensor_id;sensor_type;location;lat;lon;timestamp;pressure;altitude;pressure_sealevel;temperature;humidity
38880;BME280;25887;30.194;-97.880;2023-12-07T00:00:08;99447.34;;;19.02;36.31
38880;BME280;25887;30.194;-97.880;2023-12-07T00:02:35;99444.78;;;18.98;35.96
38880;BME280;25887;30.194;-97.880;2023-12-07T00:05:01;99442.31;;;18.91;36.37
38880;BME280;25887;30.194;-97.880;2023-12-07T00:07:27;99440.69;;;18.84;36.34
38880;BME280;25887;30.194;-97.880;2023-12-07T00:09:54;99442.50;;;18.79;36.59
38880;BME280;25887;30.194;-97.880;2023-12-07T00:12:20;99435.72;;;18.71;36.48
38880;BME280;25887;30.194;-97.880;2023-12-07T00:14:48;99444.44;;;18.67;36.51
38880;BME280;25887;30.194;-97.880;2023-12-07T00:17:15;99444.50;;;18.62;36.49
38880;BME280;25887;30.194;-97.880;2023-12-07T00:19:41;99436.78;;;18.56;36.43
38880;BME280;25887;30.194;-97.880;2023-12-07T00:22:07;99442.03;;;18.51;36.68
38880;BME280;25887;30.194;-97.880;2023-12-07T00:24:33;99441.28;;;18.45;36.77
38880;BME280;25887;30.194;-97.880;2023-12-07T00:27:00;99444.84;;;18.39;36.82
38880;BME280;25887;30.194;-97.880;2023-12-07T00:29:26;99447.50;;;18.34;36.85
38880;BME280;25887;30.194;-97.880;2023-12-07T00:31:53;99444.97;;;18.28;36.77
38880;BME280;25887;30.194;-97.880;2023-12-07T00:34:20;99438.16;;;18.21;36.87
38880;BME280;25887;30.194;-97.880;2023-12-07T00:36:46;99435.63;;;18.15;37.24
38880;BME280;25887;30.194;-97.880;2023-12-07T00:39:12;99440.03;;;18.10;37.06
38880;BME280;25887;30.194;-97.880;2023-12-07T00:41:39;99427.09;;;18.04;37.11
38880;BME280;25887;30.194;-97.880;2023-12-07T00:44:05;99439.31;;;17.97;37.14
38880;BME280;25887;30.194;-97.880;2023-12-07T00:46:31;99440.28;;;17.92;37.15
38880;BME280;25887;30.194;-97.880;2023-12-07T00:48:58;99442.94;;;17.87;37.48
38880;BME280;25887;30.194;-97.880;2023-12-07T00:51:24;99438.72;;;17.78;37.54
38880;BME280;25887;30.194;-97.880;2023-12-07T00:53:51;99441.41;;;17.71;37.46
38880;BME280;25887;30.194;-97.880;2023-12-07T00:56:17;99442.34;;;17.62;37.56
38880;BME280;25887;30.194;-97.880;2023-12-07T00:58:43;99446.75;;;17.55;37.72
38880;BME280;25887;30.194;-97.880;2023-12-07T01:01:10;99458.09;;;17.47;37.98
38880;BME280;25887;30.194;-97.880;2023-12-07T01:03:36;99453.00;;;17.38;37.90
38880;BME280;25887;30.194;-97.880;2023-12-07T01:06:02;99444.44;;;17.30;37.86
38880;BME280;25887;30.194;-97.880;2023-12-07T01:08:29;99447.13;;;17.20;37.84
38880;BME280;25887;30.194;-97.880;2023-12-07T01:10:55;99448.94;;;17.12;38.12
38880;BME280;25887;30.194;-97.880;2023-12-07T01:13:21;99445.50;;;17.07;38.12
38880;BME280;25887;30.194;-97.880;2023-12-07T01:15:47;99449.03;;;17.00;38.07
38880;BME280;25887;30.194;-97.880;2023-12-07T01:18:14;99443.03;;;16.92;38.13
38880;BME280;25887;30.194;-97.880;2023-12-07T01:20:40;99443.94;;;16.86;38.40
38880;BME280;25887;30.194;-97.880;2023-12-07T01:23:07;99444.84;;;16.81;38.39
38880;BME280;25887;30.194;-97.880;2023-12-07T01:25:34;99452.72;;;16.75;38.53
38880;BME280;25887;30.194;-97.880;2023-12-07T01:28:01;99449.25;;;16.71;38.49
38880;BME280;25887;30.194;-97.880;2023-12-07T01:30:27;99451.00;;;16.64;38.70
38880;BME280;25887;30.194;-97.880;2023-12-07T01:32:53;99451.03;;;16.61;38.75
38880;BME280;25887;30.194;-97.880;2023-12-07T01:35:20;99439.84;;;16.55;38.71
38880;BME280;25887;30.194;-97.880;2023-12-07T01:37:46;99451.13;;;16.51;38.80
38880;BME280;25887;30.194;-97.880;2023-12-07T01:40:13;99446.81;;;16.47;38.98
38880;BME280;25887;30.194;-97.880;2023-12-07T01:42:48;99438.22;;;16.40;38.97
38880;BME280;25887;30.194;-97.880;2023-12-07T01:45:15;99438.25;;;16.35;38.89
38880;BME280;25887;30.194;-97.880;2023-12-07T01:47:41;99443.47;;;16.31;39.12
38880;BME280;25887;30.194;-97.880;2023-12-07T01:50:08;99445.19;;;16.26;39.33
38880;BME280;25887;30.194;-97.880;2023-12-07T01:52:42;99438.34;;;16.22;39.37
38880;BME280;25887;30.194;-97.880;2023-12-07T01:55:12;99438.34;;;16.17;39.42
38880;BME280;25887;30.194;-97.880;2023-12-07T01:57:39;99438.38;;;16.14;39.49
38880;BME280;25887;30.194;-97.880;2023-12-07T02:00:06;99434.94;;;16.07;39.41
38880;BME280;25887;30.194;-97.880;2023-12-07T02:02:33;99445.34;;;16.01;39.73
38880;BME280;25887;30.194;-97.880;2023-12-07T02:05:00;99448.81;;;15.94;39.72
38880;BME280;25887;30.194;-97.880;2023-12-07T02:07:27;99447.16;;;15.88;39.73
38880;BME280;25887;30.194;-97.880;2023-12-07T02:09:53;99445.47;;;15.80;39.46
38880;BME280;25887;30.194;-97.880;2023-12-07T02:12:20;99445.47;;;15.74;39.92
38880;BME280;25887;30.194;-97.880;2023-12-07T02:14:47;99434.28;;;15.66;39.92
38880;BME280;25887;30.194;-97.880;2023-12-07T02:20:26;99442.06;;;15.56;39.78
38880;BME280;25887;30.194;-97.880;2023-12-07T02:22:54;99438.59;;;15.48;40.06
38880;BME280;25887;30.194;-97.880;2023-12-07T02:25:26;99449.88;;;15.41;40.06
38880;BME280;25887;30.194;-97.880;2023-12-07T02:27:55;99449.88;;;15.33;40.14
38880;BME280;25887;30.194;-97.880;2023-12-07T02:30:21;99453.34;;;15.26;40.17
38880;BME280;25887;30.194;-97.880;2023-12-07T02:32:48;99449.91;;;15.18;40.03
38880;BME280;25887;30.194;-97.880;2023-12-07T02:35:14;99449.06;;;15.12;40.52
38880;BME280;25887;30.194;-97.880;2023-12-07T02:37:50;99453.34;;;15.07;40.28
38880;BME280;25887;30.194;-97.880;2023-12-07T02:40:35;99448.19;;;15.03;40.37
38880;BME280;25887;30.194;-97.880;2023-12-07T02:43:03;99447.31;;;14.92;40.27
38880;BME280;25887;30.194;-97.880;2023-12-07T02:45:30;99453.38;;;14.88;40.64
38880;BME280;25887;30.194;-97.880;2023-12-07T02:47:57;99450.78;;;14.84;40.43
38880;BME280;25887;30.194;-97.880;2023-12-07T02:50:24;99452.50;;;14.82;40.50
38880;BME280;25887;30.194;-97.880;2023-12-07T02:52:50;99445.59;;;14.76;40.72
38880;BME280;25887;30.194;-97.880;2023-12-07T02:55:17;99437.84;;;14.73;40.91
38880;BME280;25887;30.194;-97.880;2023-12-07T02:57:44;99440.41;;;14.70;40.61
38880;BME280;25887;30.194;-97.880;2023-12-07T03:00:10;99441.28;;;14.66;40.91
38880;BME280;25887;30.194;-97.880;2023-12-07T03:02:39;99441.28;;;14.63;40.94
38880;BME280;25887;30.194;-97.880;2023-12-07T03:05:06;99445.59;;;14.61;40.83
38880;BME280;25887;30.194;-97.880;2023-12-07T03:07:35;99443.88;;;14.57;41.19
38880;BME280;25887;30.194;-97.880;2023-12-07T03:10:02;99443.00;;;14.52;40.82
38880;BME280;25887;30.194;-97.880;2023-12-07T03:12:29;99444.72;;;14.49;41.09
38880;BME280;25887;30.194;-97.880;2023-12-07T03:14:55;99436.97;;;14.46;41.01
38880;BME280;25887;30.194;-97.880;2023-12-07T03:17:22;99436.06;;;14.44;41.30
38880;BME280;25887;30.194;-97.880;2023-12-07T03:19:48;99434.34;;;14.42;41.47
38880;BME280;25887;30.194;-97.880;2023-12-07T03:22:14;99428.31;;;14.41;41.51
38880;BME280;25887;30.194;-97.880;2023-12-07T03:24:45;99432.59;;;14.39;41.58
38880;BME280;25887;30.194;-97.880;2023-12-07T03:27:12;99426.56;;;14.37;41.23
38880;BME280;25887;30.194;-97.880;2023-12-07T03:29:38;99429.16;;;14.37;41.78
38880;BME280;25887;30.194;-97.880;2023-12-07T03:32:05;99424.84;;;14.38;41.67
38880;BME280;25887;30.194;-97.880;2023-12-07T03:34:31;99427.44;;;14.36;41.72
38880;BME280;25887;30.194;-97.880;2023-12-07T03:36:57;99430.03;;;14.36;41.69
38880;BME280;25887;30.194;-97.880;2023-12-07T03:39:24;99428.31;;;14.35;41.69
38880;BME280;25887;30.194;-97.880;2023-12-07T03:41:51;99430.03;;;14.33;41.50
38880;BME280;25887;30.194;-97.880;2023-12-07T03:44:18;99421.41;;;14.33;41.36
38880;BME280;25887;30.194;-97.880;2023-12-07T03:46:44;99417.94;;;14.31;41.81
38880;BME280;25887;30.194;-97.880;2023-12-07T03:49:11;99422.25;;;14.29;41.91
38880;BME280;25887;30.194;-97.880;2023-12-07T03:51:38;99421.41;;;14.27;41.91
38880;BME280;25887;30.194;-97.880;2023-12-07T03:54:06;99421.41;;;14.25;41.93
38880;BME280;25887;30.194;-97.880;2023-12-07T03:56:33;99412.78;;;14.25;41.90
38880;BME280;25887;30.194;-97.880;2023-12-07T03:58:59;99418.78;;;14.23;41.74
38880;BME280;25887;30.194;-97.880;2023-12-07T04:01:27;99408.44;;;14.22;41.70
38880;BME280;25887;30.194;-97.880;2023-12-07T04:03:55;99414.47;;;14.21;42.01
38880;BME280;25887;30.194;-97.880;2023-12-07T04:06:22;99416.22;;;14.19;41.86
38880;BME280;25887;30.194;-97.880;2023-12-07T04:08:48;99405.00;;;14.15;42.05
38880;BME280;25887;30.194;-97.880;2023-12-07T04:11:15;99405.84;;;14.16;42.21
38880;BME280;25887;30.194;-97.880;2023-12-07T04:13:42;99409.28;;;14.15;42.17
38880;BME280;25887;30.194;-97.880;2023-12-07T04:16:09;99402.41;;;14.14;41.94
38880;BME280;25887;30.194;-97.880;2023-12-07T04:18:36;99400.69;;;14.11;41.83
38880;BME280;25887;30.194;-97.880;2023-12-07T04:21:03;99395.53;;;14.10;42.31
38880;BME280;25887;30.194;-97.880;2023-12-07T04:23:29;99399.81;;;14.08;42.29
38880;BME280;25887;30.194;-97.880;2023-12-07T04:25:55;99397.22;;;14.08;42.36
38880;BME280;25887;30.194;-97.880;2023-12-07T04:28:21;99397.22;;;14.05;42.36
38880;BME280;25887;30.194;-97.880;2023-12-07T04:30:48;99398.09;;;14.04;42.14
38880;BME280;25887;30.194;-97.880;2023-12-07T04:33:14;99386.88;;;13.99;42.64
38880;BME280;25887;30.194;-97.880;2023-12-07T04:35:40;99391.19;;;13.98;42.46
38880;BME280;25887;30.194;-97.880;2023-12-07T04:38:06;99397.22;;;13.94;42.59
38880;BME280;25887;30.194;-97.880;2023-12-07T04:40:33;99405.78;;;13.91;42.57
38880;BME280;25887;30.194;-97.880;2023-12-07T04:42:59;99394.59;;;13.88;42.57
38880;BME280;25887;30.194;-97.880;2023-12-07T04:45:25;99390.28;;;13.84;42.42
38880;BME280;25887;30.194;-97.880;2023-12-07T04:47:51;99396.31;;;13.80;42.58
38880;BME280;25887;30.194;-97.880;2023-12-07T04:50:17;99396.28;;;13.75;42.80
38880;BME280;25887;30.194;-97.880;2023-12-07T04:52:44;99391.94;;;13.68;42.94
38880;BME280;25887;30.194;-97.880;2023-12-07T04:55:10;99397.97;;;13.65;42.91
38880;BME280;25887;30.194;-97.880;2023-12-07T04:57:36;99395.34;;;13.61;42.66
38880;BME280;25887;30.194;-97.880;2023-12-07T05:00:03;99385.88;;;13.57;42.43
38880;BME280;25887;30.194;-97.880;2023-12-07T05:02:33;99392.78;;;13.55;42.65
38880;BME280;25887;30.194;-97.880;2023-12-07T05:04:59;99385.84;;;13.51;42.58
38880;BME280;25887;30.194;-97.880;2023-12-07T05:07:25;99374.66;;;13.47;43.08
38880;BME280;25887;30.194;-97.880;2023-12-07T05:09:51;99378.97;;;13.47;42.61
38880;BME280;25887;30.194;-97.880;2023-12-07T05:12:18;99382.38;;;13.46;42.84
38880;BME280;25887;30.194;-97.880;2023-12-07T05:14:44;99378.06;;;13.45;43.01
38880;BME280;25887;30.194;-97.880;2023-12-07T05:17:10;99376.34;;;13.45;42.94
38880;BME280;25887;30.194;-97.880;2023-12-07T05:19:37;99379.81;;;13.47;42.99
38880;BME280;25887;30.194;-97.880;2023-12-07T05:22:03;99370.38;;;13.49;43.15
38880;BME280;25887;30.194;-97.880;2023-12-07T05:24:30;99361.75;;;13.52;43.00
38880;BME280;25887;30.194;-97.880;2023-12-07T05:27:00;99370.41;;;13.57;43.35
38880;BME280;25887;30.194;-97.880;2023-12-07T05:29:26;99356.63;;;13.59;43.33
38880;BME280;25887;30.194;-97.880;2023-12-07T05:31:53;99354.03;;;13.61;43.05
38880;BME280;25887;30.194;-97.880;2023-12-07T05:34:20;99351.47;;;13.67;43.09
38880;BME280;25887;30.194;-97.880;2023-12-07T05:36:46;99354.09;;;13.70;43.55
38880;BME280;25887;30.194;-97.880;2023-12-07T05:39:13;99346.34;;;13.73;43.16
38880;BME280;25887;30.194;-97.880;2023-12-07T05:41:39;99344.63;;;13.77;43.61
38880;BME280;25887;30.194;-97.880;2023-12-07T05:44:06;99342.91;;;13.82;43.24
38880;BME280;25887;30.194;-97.880;2023-12-07T05:46:35;99339.50;;;13.86;43.24
38880;BME280;25887;30.194;-97.880;2023-12-07T05:49:04;99342.06;;;13.90;43.35
38880;BME280;25887;30.194;-97.880;2023-12-07T05:51:31;99342.09;;;13.93;43.27
38880;BME280;25887;30.194;-97.880;2023-12-07T05:53:57;99336.94;;;13.97;43.60
38880;BME280;25887;30.194;-97.880;2023-12-07T05:56:23;99327.44;;;13.99;43.27
38880;BME280;25887;30.194;-97.880;2023-12-07T05:58:50;99331.78;;;14.03;43.48
38880;BME280;25887;30.194;-97.880;2023-12-07T06:01:19;99314.53;;;14.05;42.96
38880;BME280;25887;30.194;-97.880;2023-12-07T06:03:45;99314.53;;;14.08;43.02
38880;BME280;25887;30.194;-97.880;2023-12-07T06:06:11;99306.81;;;14.11;43.44
38880;BME280;25887;30.194;-97.880;2023-12-07T06:08:38;99307.66;;;14.13;43.32
38880;BME280;25887;30.194;-97.880;2023-12-07T06:11:04;99305.06;;;14.13;43.43
38880;BME280;25887;30.194;-97.880;2023-12-07T06:13:31;99293.00;;;14.13;43.24
38880;BME280;25887;30.194;-97.880;2023-12-07T06:15:57;99291.28;;;14.15;43.28
38880;BME280;25887;30.194;-97.880;2023-12-07T06:18:24;99290.44;;;14.16;43.36
38880;BME280;25887;30.194;-97.880;2023-12-07T06:20:50;99281.81;;;14.19;43.31
38880;BME280;25887;30.194;-97.880;2023-12-07T06:23:17;99276.66;;;14.19;43.22
38880;BME280;25887;30.194;-97.880;2023-12-07T06:25:43;99276.66;;;14.19;43.38
38880;BME280;25887;30.194;-97.880;2023-12-07T06:28:09;99264.59;;;14.19;43.47
38880;BME280;25887;30.194;-97.880;2023-12-07T06:30:36;99272.34;;;14.19;43.48
38880;BME280;25887;30.194;-97.880;2023-12-07T06:33:02;99268.91;;;14.20;43.07
38880;BME280;25887;30.194;-97.880;2023-12-07T06:35:28;99274.91;;;14.21;43.42
38880;BME280;25887;30.194;-97.880;2023-12-07T06:37:55;99262.84;;;14.23;43.34
38880;BME280;25887;30.194;-97.880;2023-12-07T06:40:21;99266.28;;;14.23;43.42
38880;BME280;25887;30.194;-97.880;2023-12-07T06:42:47;99261.16;;;14.25;43.61
38880;BME280;25887;30.194;-97.880;2023-12-07T06:45:16;99258.56;;;14.27;43.15
38880;BME280;25887;30.194;-97.880;2023-12-07T06:47:42;99260.28;;;14.25;43.46
38880;BME280;25887;30.194;-97.880;2023-12-07T06:50:10;99258.53;;;14.23;43.41
38880;BME280;25887;30.194;-97.880;2023-12-07T06:52:37;99263.72;;;14.23;43.43
38880;BME280;25887;30.194;-97.880;2023-12-07T06:55:04;99268.03;;;14.23;43.38
38880;BME280;25887;30.194;-97.880;2023-12-07T06:57:30;99262.00;;;14.22;43.41
38880;BME280;25887;30.194;-97.880;2023-12-07T06:59:56;99250.81;;;14.19;43.53
38880;BME280;25887;30.194;-97.880;2023-12-07T07:02:24;99250.81;;;14.17;43.60
38880;BME280;25887;30.194;-97.880;2023-12-07T07:04:51;99251.66;;;14.13;43.56
38880;BME280;25887;30.194;-97.880;2023-12-07T07:07:18;99246.50;;;14.12;43.47
38880;BME280;25887;30.194;-97.880;2023-12-07T07:09:44;99253.41;;;14.10;43.76
38880;BME280;25887;30.194;-97.880;2023-12-07T07:12:11;99236.16;;;14.06;43.40
38880;BME280;25887;30.194;-97.880;2023-12-07T07:14:41;99239.63;;;14.02;43.94
38880;BME280;25887;30.194;-97.880;2023-12-07T07:17:07;99236.16;;;14.00;43.52
38880;BME280;25887;30.194;-97.880;2023-12-07T07:19:34;99231.00;;;13.97;43.99
38880;BME280;25887;30.194;-97.880;2023-12-07T07:22:00;99231.84;;;13.92;43.70
38880;BME280;25887;30.194;-97.880;2023-12-07T07:24:26;99225.81;;;13.92;43.77
38880;BME280;25887;30.194;-97.880;2023-12-07T07:26:53;99225.84;;;13.89;43.74
38880;BME280;25887;30.194;-97.880;2023-12-07T07:29:20;99224.97;;;13.87;44.16
38880;BME280;25887;30.194;-97.880;2023-12-07T07:31:46;99219.81;;;13.82;43.62
38880;BME280;25887;30.194;-97.880;2023-12-07T07:34:12;99218.09;;;13.80;44.23
38880;BME280;25887;30.194;-97.880;2023-12-07T07:36:39;99216.34;;;13.77;44.26
38880;BME280;25887;30.194;-97.880;2023-12-07T07:39:05;99215.50;;;13.74;43.93
38880;BME280;25887;30.194;-97.880;2023-12-07T07:41:34;99209.47;;;13.70;43.94
38880;BME280;25887;30.194;-97.880;2023-12-07T07:44:00;99211.19;;;13.68;44.00
38880;BME280;25887;30.194;-97.880;2023-12-07T07:46:27;99209.47;;;13.64;44.36
38880;BME280;25887;30.194;-97.880;2023-12-07T07:48:54;99204.31;;;13.62;44.38
38880;BME280;25887;30.194;-97.880;2023-12-07T07:51:20;99204.28;;;13.58;44.56
38880;BME280;25887;30.194;-97.880;2023-12-07T07:53:46;99206.03;;;13.56;44.21
38880;BME280;25887;30.194;-97.880;2023-12-07T07:56:12;99196.56;;;13.55;44.56
38880;BME280;25887;30.194;-97.880;2023-12-07T07:58:41;99193.09;;;13.51;44.61
38880;BME280;25887;30.194;-97.880;2023-12-07T08:01:07;99186.22;;;13.50;44.24
38880;BME280;25887;30.194;-97.880;2023-12-07T08:03:35;99184.50;;;13.48;44.23
38880;BME280;25887;30.194;-97.880;2023-12-07T08:06:01;99183.63;;;13.46;44.27
38880;BME280;25887;30.194;-97.880;2023-12-07T08:08:27;99178.47;;;13.43;44.49
38880;BME280;25887;30.194;-97.880;2023-12-07T08:10:53;99180.19;;;13.41;44.68
38880;BME280;25887;30.194;-97.880;2023-12-07T08:13:20;99173.31;;;13.40;44.64
38880;BME280;25887;30.194;-97.880;2023-12-07T08:15:46;99175.00;;;13.37;44.86
38880;BME280;25887;30.194;-97.880;2023-12-07T08:18:12;99172.41;;;13.36;44.76
38880;BME280;25887;30.194;-97.880;2023-12-07T08:20:40;99165.56;;;13.32;44.55
38880;BME280;25887;30.194;-97.880;2023-12-07T08:23:06;99170.72;;;13.32;44.48
38880;BME280;25887;30.194;-97.880;2023-12-07T08:25:32;99160.34;;;13.30;44.59
38880;BME280;25887;30.194;-97.880;2023-12-07T08:27:58;99158.66;;;13.31;44.72
38880;BME280;25887;30.194;-97.880;2023-12-07T08:30:25;99150.91;;;13.29;44.52
38880;BME280;25887;30.194;-97.880;2023-12-07T08:32:51;99159.53;;;13.31;44.81
38880;BME280;25887;30.194;-97.880;2023-12-07T08:35:17;99151.75;;;13.30;44.86
38880;BME280;25887;30.194;-97.880;2023-12-07T08:37:43;99150.91;;;13.29;44.64
38880;BME280;25887;30.194;-97.880;2023-12-07T08:40:10;99142.31;;;13.27;45.04
38880;BME280;25887;30.194;-97.880;2023-12-07T08:42:37;99149.19;;;13.28;45.50
38880;BME280;25887;30.194;-97.880;2023-12-07T08:45:04;99148.31;;;13.28;45.58
38880;BME280;25887;30.194;-97.880;2023-12-07T08:47:30;99150.03;;;13.27;45.22
38880;BME280;25887;30.194;-97.880;2023-12-07T08:49:57;99148.34;;;13.26;44.91
38880;BME280;25887;30.194;-97.880;2023-12-07T08:52:23;99148.34;;;13.26;45.42
38880;BME280;25887;30.194;-97.880;2023-12-07T08:54:50;99135.44;;;13.26;45.26
38880;BME280;25887;30.194;-97.880;2023-12-07T08:57:18;99138.88;;;13.25;45.40
38880;BME280;25887;30.194;-97.880;2023-12-07T08:59:44;99134.56;;;13.26;45.33
38880;BME280;25887;30.194;-97.880;2023-12-07T09:02:10;99134.56;;;13.26;45.74
38880;BME280;25887;30.194;-97.880;2023-12-07T09:04:37;99131.13;;;13.25;45.59
38880;BME280;25887;30.194;-97.880;2023-12-07T09:07:05;99127.69;;;13.25;46.05
38880;BME280;25887;30.194;-97.880;2023-12-07T09:09:31;99119.94;;;13.25;45.61
38880;BME280;25887;30.194;-97.880;2023-12-07T09:11:58;99120.81;;;13.25;45.82
38880;BME280;25887;30.194;-97.880;2023-12-07T09:14:24;99119.06;;;13.23;45.55
38880;BME280;25887;30.194;-97.880;2023-12-07T09:16:52;99111.31;;;13.21;45.81
38880;BME280;25887;30.194;-97.880;2023-12-07T09:19:20;99114.78;;;13.20;45.59
38880;BME280;25887;30.194;-97.880;2023-12-07T09:21:46;99111.31;;;13.18;45.97
38880;BME280;25887;30.194;-97.880;2023-12-07T09:24:13;99108.72;;;13.15;45.46
38880;BME280;25887;30.194;-97.880;2023-12-07T09:26:40;99105.25;;;13.13;45.58
38880;BME280;25887;30.194;-97.880;2023-12-07T09:29:06;99102.69;;;13.10;45.83
38880;BME280;25887;30.194;-97.880;2023-12-07T09:31:34;99115.59;;;13.08;45.95
38880;BME280;25887;30.194;-97.880;2023-12-07T09:34:00;99111.28;;;13.06;45.53
38880;BME280;25887;30.194;-97.880;2023-12-07T09:36:26;99111.28;;;13.04;45.81
38880;BME280;25887;30.194;-97.880;2023-12-07T09:38:54;99111.28;;;13.03;46.04
38880;BME280;25887;30.194;-97.880;2023-12-07T09:41:20;99107.84;;;13.01;45.89
38880;BME280;25887;30.194;-97.880;2023-12-07T09:43:47;99108.69;;;13.01;46.39
38880;BME280;25887;30.194;-97.880;2023-12-07T09:46:14;99106.09;;;12.98;46.18
38880;BME280;25887;30.194;-97.880;2023-12-07T09:48:43;99106.09;;;12.97;46.00
38880;BME280;25887;30.194;-97.880;2023-12-07T09:51:12;99112.97;;;12.96;46.11
38880;BME280;25887;30.194;-97.880;2023-12-07T09:53:39;99106.09;;;12.94;45.88
38880;BME280;25887;30.194;-97.880;2023-12-07T09:56:08;99100.06;;;12.92;46.23
38880;BME280;25887;30.194;-97.880;2023-12-07T09:58:35;99100.91;;;12.91;46.33
38880;BME280;25887;30.194;-97.880;2023-12-07T10:01:01;99100.06;;;12.89;46.34
38880;BME280;25887;30.194;-97.880;2023-12-07T10:03:27;99102.66;;;12.86;46.75
38880;BME280;25887;30.194;-97.880;2023-12-07T10:05:59;99097.50;;;12.86;46.59
38880;BME280;25887;30.194;-97.880;2023-12-07T10:08:32;99094.06;;;12.90;46.01
38880;BME280;25887;30.194;-97.880;2023-12-07T10:11:07;99091.47;;;12.80;46.52
38880;BME280;25887;30.194;-97.880;2023-12-07T10:13:36;99090.59;;;12.78;46.49
38880;BME280;25887;30.194;-97.880;2023-12-07T10:16:13;99082.88;;;12.77;46.29
38880;BME280;25887;30.194;-97.880;2023-12-07T10:18:42;99082.84;;;12.74;46.40
38880;BME280;25887;30.194;-97.880;2023-12-07T10:21:08;99091.44;;;12.71;46.22
38880;BME280;25887;30.194;-97.880;2023-12-07T10:23:37;99083.69;;;12.70;46.32
38880;BME280;25887;30.194;-97.880;2023-12-07T10:26:07;99083.69;;;12.68;46.67
38880;BME280;25887;30.194;-97.880;2023-12-07T10:28:35;99081.97;;;12.67;46.62
38880;BME280;25887;30.194;-97.880;2023-12-07T10:31:06;99077.66;;;12.65;46.88
38880;BME280;25887;30.194;-97.880;2023-12-07T10:33:34;99078.53;;;12.62;46.76
38880;BME280;25887;30.194;-97.880;2023-12-07T10:36:03;99081.97;;;12.63;47.07
38880;BME280;25887;30.194;-97.880;2023-12-07T10:38:29;99072.47;;;12.60;47.14
38880;BME280;25887;30.194;-97.880;2023-12-07T10:41:05;99071.66;;;12.61;47.10
38880;BME280;25887;30.194;-97.880;2023-12-07T10:43:37;99063.06;;;12.61;47.25
38880;BME280;25887;30.194;-97.880;2023-12-07T10:46:07;99063.03;;;12.59;47.33
38880;BME280;25887;30.194;-97.880;2023-12-07T10:48:35;99058.75;;;12.58;47.19
38880;BME280;25887;30.194;-97.880;2023-12-07T10:51:08;99057.00;;;12.60;47.23
38880;BME280;25887;30.194;-97.880;2023-12-07T10:53:40;99057.88;;;12.59;47.59
38880;BME280;25887;30.194;-97.880;2023-12-07T10:56:11;99058.75;;;12.58;47.13
38880;BME280;25887;30.194;-97.880;2023-12-07T10:58:43;99047.56;;;12.58;47.66
38880;BME280;25887;30.194;-97.880;2023-12-07T11:01:11;99052.72;;;12.56;47.26
38880;BME280;25887;30.194;-97.880;2023-12-07T11:03:39;99040.69;;;12.55;47.47
38880;BME280;25887;30.194;-97.880;2023-12-07T11:06:07;99051.00;;;12.55;47.66
38880;BME280;25887;30.194;-97.880;2023-12-07T11:08:44;99038.97;;;12.57;47.49
38880;BME280;25887;30.194;-97.880;2023-12-07T11:14:06;99040.72;;;12.61;47.86
38880;BME280;25887;30.194;-97.880;2023-12-07T11:16:35;99032.97;;;12.58;47.55
38880;BME280;25887;30.194;-97.880;2023-12-07T11:19:03;99036.41;;;12.60;47.89
38880;BME280;25887;30.194;-97.880;2023-12-07T11:21:30;99032.97;;;12.60;47.73
38880;BME280;25887;30.194;-97.880;2023-12-07T11:24:00;99035.56;;;12.61;48.28
38880;BME280;25887;30.194;-97.880;2023-12-07T11:26:29;99039.88;;;12.61;48.48
38880;BME280;25887;30.194;-97.880;2023-12-07T11:28:56;99033.81;;;12.60;48.18
38880;BME280;25887;30.194;-97.880;2023-12-07T11:31:22;99044.16;;;12.63;48.01
38880;BME280;25887;30.194;-97.880;2023-12-07T11:33:48;99035.56;;;12.63;48.40
38880;BME280;25887;30.194;-97.880;2023-12-07T11:36:15;99032.13;;;12.62;48.18
38880;BME280;25887;30.194;-97.880;2023-12-07T11:41:37;99038.13;;;12.63;48.08
38880;BME280;25887;30.194;-97.880;2023-12-07T11:44:10;99041.56;;;12.62;48.61
38880;BME280;25887;30.194;-97.880;2023-12-07T11:46:38;99040.72;;;12.61;48.18
38880;BME280;25887;30.194;-97.880;2023-12-07T11:49:04;99044.13;;;12.60;48.70
38880;BME280;25887;30.194;-97.880;2023-12-07T11:51:33;99042.44;;;12.62;48.76
38880;BME280;25887;30.194;-97.880;2023-12-07T11:54:00;99049.31;;;12.62;48.30
38880;BME280;25887;30.194;-97.880;2023-12-07T11:56:26;99053.59;;;12.63;48.50
38880;BME280;25887;30.194;-97.880;2023-12-07T11:58:53;99058.75;;;12.63;48.95
38880;BME280;25887;30.194;-97.880;2023-12-07T12:01:24;99054.47;;;12.65;48.64
38880;BME280;25887;30.194;-97.880;2023-12-07T12:03:50;99049.31;;;12.66;48.79
38880;BME280;25887;30.194;-97.880;2023-12-07T12:06:16;99051.03;;;12.67;48.73
38880;BME280;25887;30.194;-97.880;2023-12-07T12:08:43;99046.75;;;12.69;48.81
38880;BME280;25887;30.194;-97.880;2023-12-07T12:11:09;99040.72;;;12.70;48.75
38880;BME280;25887;30.194;-97.880;2023-12-07T12:13:36;99040.72;;;12.70;48.75
38880;BME280;25887;30.194;-97.880;2023-12-07T12:16:03;99047.59;;;12.74;48.88
38880;BME280;25887;30.194;-97.880;2023-12-07T12:18:30;99051.91;;;12.74;49.01
38880;BME280;25887;30.194;-97.880;2023-12-07T12:20:56;99057.06;;;12.75;49.29
38880;BME280;25887;30.194;-97.880;2023-12-07T12:23:25;99057.06;;;12.75;49.52
38880;BME280;25887;30.194;-97.880;2023-12-07T12:25:51;99051.06;;;12.76;49.28
38880;BME280;25887;30.194;-97.880;2023-12-07T12:28:19;99045.88;;;12.75;49.39
38880;BME280;25887;30.194;-97.880;2023-12-07T12:30:48;99047.63;;;12.77;49.19
38880;BME280;25887;30.194;-97.880;2023-12-07T12:33:14;99048.50;;;12.78;49.56
38880;BME280;25887;30.194;-97.880;2023-12-07T12:35:41;99047.63;;;12.77;49.08
38880;BME280;25887;30.194;-97.880;2023-12-07T12:38:11;99055.34;;;12.79;49.57
38880;BME280;25887;30.194;-97.880;2023-12-07T12:40:37;99050.22;;;12.77;49.33
38880;BME280;25887;30.194;-97.880;2023-12-07T12:43:04;99054.50;;;12.78;49.70
38880;BME280;25887;30.194;-97.880;2023-12-07T12:45:33;99056.22;;;12.79;49.62
38880;BME280;25887;30.194;-97.880;2023-12-07T12:47:59;99052.78;;;12.79;49.80